Time;durP1;ratioP1;P1;durP2;ratioP2;P2;SDS_P1;SDS_P2;PMS_P1;PMS_P2;Temp;Humidity;BMP_temperature;BMP_pressure;BME280_temperature;BME280_humidity;BME280_pressure;Samples;Min_cycle;Max_cycle;Signal;HPM_P1;HPM_P2
2022/06/19 00:00:37;;;;;;;5.43;3.65;;;;;;;;;;5014607;28;21347;-71
2022/06/19 00:03:03;;;;;;;7.45;3.97;;;;;;;;;;5013780;28;20029;-71
2022/06/19 00:05:29;;;;;;;3.95;3.65;;;;;;;;;;5010288;28;20373;-72
2022/06/19 00:07:55;;;;;;;7.40;3.88;;;;;;;;;;5018039;28;20108;-70
2022/06/19 00:10:20;;;;;;;4.20;3.80;;;;;;;;;;5016235;28;20128;-71
2022/06/19 00:12:45;;;;;;;4.43;4.07;;;;;;;;;;5015475;28;20071;-71
2022/06/19 00:15:11;;;;;;;9.55;4.05;;;;;;;;;;5013752;28;20075;-71
2022/06/19 00:17:36;;;;;;;6.43;4.40;;;;;;;;;;5025129;28;20095;-70
2022/06/19 00:20:03;;;;;;;4.18;3.88;;;;;;;;;;5010713;28;20041;-71
2022/06/19 00:22:28;;;;;;;4.72;3.92;;;;;;;;;;5011263;28;20033;-70
2022/06/19 00:24:53;;;;;;;4.55;4.13;;;;;;;;;;5006199;28;20032;-71
2022/06/19 00:27:19;;;;;;;4.43;4.10;;;;;;;;;;5010526;28;20022;-71
2022/06/19 00:29:44;;;;;;;5.05;4.57;;;;;;;;;;5010359;28;20025;-71
2022/06/19 00:32:09;;;;;;;4.90;4.50;;;;;;;;;;5012140;28;20417;-71
2022/06/19 00:34:35;;;;;;;7.20;4.30;;;;;;;;;;5011150;28;20028;-70
2022/06/19 00:37:02;;;;;;;6.30;4.63;;;;;;;;;;5009968;28;20080;-70
2022/06/19 00:39:28;;;;;;;4.57;4.18;;;;;;;;;;5007807;28;20056;-71
2022/06/19 00:41:53;;;;;;;5.10;3.88;;;;;;;;;;5016738;28;20112;-70
2022/06/19 00:44:19;;;;;;;4.32;3.70;;;;;;;;;;5018786;28;20028;-72
2022/06/19 00:46:44;;;;;;;3.78;3.47;;;;;;;;;;5015179;28;20029;-72
2022/06/19 00:49:11;;;;;;;4.45;4.13;;;;;;;;;;5019146;28;20040;-74
2022/06/19 00:51:36;;;;;;;4.03;3.72;;;;;;;;;;5017392;28;20025;-70
2022/06/19 00:54:03;;;;;;;3.88;3.58;;;;;;;;;;5018113;28;20063;-70
2022/06/19 00:56:30;;;;;;;4.60;4.20;;;;;;;;;;5020862;28;20029;-70
2022/06/19 00:58:55;;;;;;;5.53;4.32;;;;;;;;;;5021824;28;20133;-70
2022/06/19 01:01:22;;;;;;;4.60;4.20;;;;;;;;;;5022857;28;20136;-70
2022/06/19 01:03:51;;;;;;;4.00;3.70;;;;;;;;;;5022529;28;20053;-70
2022/06/19 01:06:17;;;;;;;4.75;4.35;;;;;;;;;;5021312;28;20146;-70
2022/06/19 01:08:42;;;;;;;7.70;4.03;;;;;;;;;;5020827;28;20079;-73
2022/06/19 01:11:08;;;;;;;4.57;4.07;;;;;;;;;;5020984;28;20073;-71
2022/06/19 01:13:34;;;;;;;5.45;3.65;;;;;;;;;;5022288;28;20051;-70
2022/06/19 01:16:00;;;;;;;6.22;3.88;;;;;;;;;;5019247;28;20468;-70
2022/06/19 01:18:26;;;;;;;5.25;4.43;;;;;;;;;;5018091;28;20036;-71
2022/06/19 01:20:55;;;;;;;3.70;3.40;;;;;;;;;;5019769;28;20033;-71
2022/06/19 01:23:20;;;;;;;4.30;3.90;;;;;;;;;;5017755;28;21052;-74
2022/06/19 01:25:48;;;;;;;4.60;4.20;;;;;;;;;;5015945;28;20029;-71
2022/06/19 01:31:04;;;;;;;4.43;4.13;;;;;;;;;;5023311;28;20487;-72
2022/06/19 01:33:36;;;;;;;4.00;3.63;;;;;;;;;;5019825;28;20496;-74
2022/06/19 01:36:02;;;;;;;3.58;3.28;;;;;;;;;;5018979;28;20083;-72
2022/06/19 01:38:29;;;;;;;4.88;3.88;;;;;;;;;;5020253;28;20048;-72
2022/06/19 01:40:57;;;;;;;4.00;3.60;;;;;;;;;;5018051;28;20447;-71
2022/06/19 01:43:23;;;;;;;4.30;3.90;;;;;;;;;;5016124;28;20032;-70
2022/06/19 01:45:52;;;;;;;3.38;3.08;;;;;;;;;;5021455;28;20021;-70
2022/06/19 01:48:18;;;;;;;4.07;3.67;;;;;;;;;;5021869;28;20546;-73
2022/06/19 01:50:44;;;;;;;4.18;3.78;;;;;;;;;;5021383;28;20039;-71
2022/06/19 01:53:11;;;;;;;3.20;3.00;;;;;;;;;;5021655;28;20025;-71
2022/06/19 01:55:37;;;;;;;3.85;3.55;;;;;;;;;;5019860;28;20065;-73
2022/06/19 01:58:04;;;;;;;5.18;3.65;;;;;;;;;;5019127;28;20076;-71
2022/06/19 02:00:31;;;;;;;5.68;3.83;;;;;;;;;;5019615;28;20072;-71
2022/06/19 02:03:03;;;;;;;3.60;3.35;;;;;;;;;;5019501;28;20061;-71
2022/06/19 02:05:30;;;;;;;3.88;3.58;;;;;;;;;;5021461;28;21249;-71
2022/06/19 02:07:56;;;;;;;5.55;3.38;;;;;;;;;;5021868;28;20025;-71
2022/06/19 02:10:22;;;;;;;3.90;3.60;;;;;;;;;;5021253;28;20136;-73
2022/06/19 02:12:47;;;;;;;6.53;3.17;;;;;;;;;;5017651;28;20052;-71
2022/06/19 02:15:13;;;;;;;4.55;3.75;;;;;;;;;;5020064;28;20021;-72
2022/06/19 02:17:42;;;;;;;5.10;3.70;;;;;;;;;;5019314;28;20079;-70
2022/06/19 02:20:08;;;;;;;;;;;;;;;;;;5020481;28;20511;-73
2022/06/19 02:22:34;;;;;;;4.10;3.50;;;;;;;;;;5021108;28;19921;-70
2022/06/19 02:25:00;;;;;;;4.45;4.05;;;;;;;;;;5019897;28;20044;-72
2022/06/19 02:27:25;;;;;;;3.92;3.60;;;;;;;;;;5020230;28;20336;-71
2022/06/19 02:29:51;;;;;;;5.05;3.70;;;;;;;;;;5019411;28;20033;-72
2022/06/19 02:32:38;;;;;;;3.90;3.55;;;;;;;;;;5017638;28;20116;-71
2022/06/19 02:35:03;;;;;;;4.60;4.20;;;;;;;;;;5019474;28;20028;-71
2022/06/19 02:37:31;;;;;;;4.88;3.60;;;;;;;;;;5019893;28;20030;-70
2022/06/19 02:40:12;;;;;;;4.70;3.28;;;;;;;;;;5014836;28;20076;-73
2022/06/19 02:42:40;;;;;;;4.55;3.35;;;;;;;;;;5010787;28;20172;-70
2022/06/19 02:45:14;;;;;;;4.45;3.83;;;;;;;;;;5009376;28;20049;-69
2022/06/19 02:47:41;;;;;;;4.18;3.78;;;;;;;;;;5010281;28;20030;-71
2022/06/19 02:50:08;;;;;;;4.00;3.70;;;;;;;;;;5012876;28;20036;-72
2022/06/19 02:52:34;;;;;;;4.97;3.42;;;;;;;;;;5012091;28;20061;-71
2022/06/19 02:54:59;;;;;;;4.63;3.30;;;;;;;;;;5011401;28;20061;-71
2022/06/19 02:57:26;;;;;;;3.80;3.50;;;;;;;;;;5011094;28;20421;-72
2022/06/19 02:59:51;;;;;;;3.72;3.40;;;;;;;;;;5011910;28;20030;-72
2022/06/19 03:02:16;;;;;;;3.72;3.42;;;;;;;;;;5011468;28;20717;-73
2022/06/19 03:04:44;;;;;;;4.05;3.42;;;;;;;;;;5014633;28;20036;-71
2022/06/19 03:07:09;;;;;;;3.45;3.17;;;;;;;;;;5011366;28;20063;-71
2022/06/19 03:09:34;;;;;;;3.85;3.28;;;;;;;;;;5009623;28;20038;-70
2022/06/19 03:12:00;;;;;;;3.80;3.50;;;;;;;;;;5011327;28;20017;-71
2022/06/19 03:14:25;;;;;;;4.00;3.65;;;;;;;;;;5014135;28;20030;-70
2022/06/19 03:16:51;;;;;;;4.15;3.85;;;;;;;;;;5011124;28;20025;-73
2022/06/19 03:19:16;;;;;;;4.55;4.15;;;;;;;;;;5010243;28;20641;-70
2022/06/19 03:21:42;;;;;;;6.82;3.92;;;;;;;;;;5011298;28;20061;-72
2022/06/19 03:24:07;;;;;;;4.63;3.95;;;;;;;;;;5008211;28;20428;-69
2022/06/19 03:26:33;;;;;;;4.22;3.85;;;;;;;;;;5008982;28;20408;-70
2022/06/19 03:28:58;;;;;;;4.03;3.70;;;;;;;;;;5012305;28;20046;-70
2022/06/19 03:31:25;;;;;;;6.93;3.92;;;;;;;;;;5008023;28;20117;-71
2022/06/19 03:33:51;;;;;;;4.00;3.63;;;;;;;;;;5010492;28;20072;-72
2022/06/19 03:36:17;;;;;;;4.10;3.80;;;;;;;;;;5010231;28;20389;-70
2022/06/19 03:38:42;;;;;;;6.57;3.85;;;;;;;;;;5011079;28;20111;-70
2022/06/19 03:41:08;;;;;;;4.35;3.33;;;;;;;;;;5008110;28;20465;-70
2022/06/19 03:43:34;;;;;;;4.50;4.10;;;;;;;;;;5009958;28;21074;-70
2022/06/19 03:46:03;;;;;;;4.15;3.75;;;;;;;;;;5010520;28;20029;-69
2022/06/19 03:48:28;;;;;;;4.15;3.78;;;;;;;;;;5011093;28;20349;-69
2022/06/19 03:50:54;;;;;;;4.75;4.32;;;;;;;;;;5007381;28;20034;-72
2022/06/19 03:53:19;;;;;;;10.30;8.10;;;;;;;;;;5006774;28;20022;-70
2022/06/19 03:55:45;;;;;;;15.75;14.10;;;;;;;;;;5009301;28;20040;-71
2022/06/19 03:58:11;;;;;;;10.43;9.30;;;;;;;;;;5009264;28;20030;-72
2022/06/19 04:00:36;;;;;;;6.20;5.60;;;;;;;;;;5010966;28;20025;-70
2022/06/19 04:03:01;;;;;;;6.97;4.63;;;;;;;;;;5009074;28;20060;-73
2022/06/19 04:05:27;;;;;;;4.32;4.00;;;;;;;;;;5008463;28;20076;-70
2022/06/19 04:07:52;;;;;;;4.00;3.50;;;;;;;;;;5011084;28;20022;-71
2022/06/19 04:10:19;;;;;;;4.60;4.20;;;;;;;;;;5011365;28;20053;-71
2022/06/19 04:12:44;;;;;;;4.20;3.85;;;;;;;;;;5008581;28;20061;-70
2022/06/19 04:15:10;;;;;;;6.32;3.83;;;;;;;;;;5009053;28;20053;-72
2022/06/19 04:17:36;;;;;;;5.53;3.60;;;;;;;;;;5011886;28;20091;-71
2022/06/19 04:20:02;;;;;;;4.00;3.65;;;;;;;;;;5012274;28;20428;-71
2022/06/19 04:22:28;;;;;;;4.38;3.85;;;;;;;;;;5012587;28;20029;-70
2022/06/19 04:24:53;;;;;;;7.20;3.95;;;;;;;;;;5010125;28;20160;-72
2022/06/19 04:27:19;;;;;;;5.35;4.03;;;;;;;;;;5008470;28;20039;-71
2022/06/19 04:29:44;;;;;;;4.35;4.03;;;;;;;;;;5008801;28;20028;-72
2022/06/19 04:32:09;;;;;;;4.47;3.90;;;;;;;;;;5010799;28;20025;-72
2022/06/19 04:34:34;;;;;;;4.40;3.58;;;;;;;;;;5009600;28;20033;-73
2022/06/19 04:37:00;;;;;;;3.83;3.53;;;;;;;;;;5010882;28;20029;-70
2022/06/19 04:39:25;;;;;;;4.82;4.32;;;;;;;;;;5012167;28;20061;-71
2022/06/19 04:41:51;;;;;;;4.32;3.95;;;;;;;;;;5007401;28;20034;-70
2022/06/19 04:44:17;;;;;;;4.50;4.10;;;;;;;;;;5008335;28;20436;-70
2022/06/19 04:46:43;;;;;;;4.53;4.07;;;;;;;;;;5009571;28;20037;-70
2022/06/19 04:49:09;;;;;;;3.85;3.55;;;;;;;;;;5009859;28;20403;-72
2022/06/19 04:51:34;;;;;;;4.72;4.00;;;;;;;;;;5006414;28;20021;-72
2022/06/19 04:53:59;;;;;;;3.85;3.55;;;;;;;;;;5012472;28;20409;-71
2022/06/19 04:56:25;;;;;;;4.35;3.95;;;;;;;;;;5007185;28;20412;-72
2022/06/19 04:58:50;;;;;;;4.05;3.65;;;;;;;;;;5005798;28;20029;-70
2022/06/19 05:01:23;;;;;;;3.92;3.63;;;;;;;;;;5012338;28;20030;-71
2022/06/19 05:03:48;;;;;;;4.43;4.03;;;;;;;;;;5005279;28;20029;-70
2022/06/19 05:06:13;;;;;;;6.70;4.03;;;;;;;;;;5006723;28;20022;-71
2022/06/19 05:08:39;;;;;;;3.70;3.40;;;;;;;;;;5004818;28;20036;-70
2022/06/19 05:11:04;;;;;;;4.25;3.65;;;;;;;;;;5007057;28;20026;-70
2022/06/19 05:13:29;;;;;;;4.13;3.83;;;;;;;;;;5004738;28;20108;-70
2022/06/19 05:16:02;;;;;;;3.95;3.58;;;;;;;;;;5007544;28;20504;-71
2022/06/19 05:18:28;;;;;;;4.00;3.70;;;;;;;;;;5008730;28;20030;-70
2022/06/19 05:20:56;;;;;;;4.13;3.47;;;;;;;;;;5011200;28;20505;-70
2022/06/19 05:23:22;;;;;;;4.50;4.10;;;;;;;;;;5009060;28;20118;-70
2022/06/19 05:25:47;;;;;;;4.35;4.03;;;;;;;;;;5007047;28;20079;-70
2022/06/19 05:28:12;;;;;;;4.03;3.72;;;;;;;;;;5005052;28;20064;-71
2022/06/19 05:30:38;;;;;;;4.00;3.67;;;;;;;;;;5004689;28;20087;-69
2022/06/19 05:33:03;;;;;;;8.73;3.92;;;;;;;;;;5005081;28;20116;-70
2022/06/19 05:35:28;;;;;;;3.95;3.65;;;;;;;;;;5006795;28;20034;-71
2022/06/19 05:37:54;;;;;;;4.93;3.55;;;;;;;;;;5006775;28;20041;-68
2022/06/19 05:40:19;;;;;;;4.38;3.97;;;;;;;;;;5005828;28;20176;-71
2022/06/19 05:42:46;;;;;;;4.85;4.43;;;;;;;;;;5012811;28;20086;-74
2022/06/19 05:45:11;;;;;;;4.80;4.32;;;;;;;;;;5015129;28;20228;-69
2022/06/19 05:47:37;;;;;;;5.13;4.32;;;;;;;;;;5010016;28;20538;-72
2022/06/19 05:50:02;;;;;;;4.88;4.43;;;;;;;;;;5012727;28;20022;-70
2022/06/19 05:52:27;;;;;;;4.93;3.80;;;;;;;;;;5013544;28;20044;-69
2022/06/19 05:54:53;;;;;;;5.05;4.30;;;;;;;;;;5014990;28;20029;-68
2022/06/19 05:57:19;;;;;;;4.00;3.65;;;;;;;;;;5008552;28;20021;-71
2022/06/19 05:59:44;;;;;;;4.30;4.00;;;;;;;;;;5008114;28;20034;-75
2022/06/19 06:02:12;;;;;;;4.43;4.03;;;;;;;;;;5008846;28;20029;-71
2022/06/19 06:04:37;;;;;;;4.20;3.80;;;;;;;;;;5009276;28;20025;-70
2022/06/19 06:07:05;;;;;;;4.60;3.80;;;;;;;;;;5009041;28;20021;-69
2022/06/19 06:09:30;;;;;;;3.88;3.10;;;;;;;;;;5010752;28;20033;-71
2022/06/19 06:11:55;;;;;;;3.92;3.63;;;;;;;;;;5007615;28;20330;-70
2022/06/19 06:14:21;;;;;;;4.00;3.70;;;;;;;;;;5009194;28;20041;-70
2022/06/19 06:16:46;;;;;;;4.25;3.85;;;;;;;;;;5006775;28;20029;-69
2022/06/19 06:19:12;;;;;;;3.67;3.38;;;;;;;;;;5009163;28;20121;-69
2022/06/19 06:21:37;;;;;;;3.85;3.55;;;;;;;;;;5011185;28;20109;-69
2022/06/19 06:24:03;;;;;;;4.70;3.47;;;;;;;;;;5012853;28;20117;-70
2022/06/19 06:26:29;;;;;;;3.80;3.40;;;;;;;;;;5012351;28;20183;-70
2022/06/19 06:28:56;;;;;;;3.63;3.00;;;;;;;;;;5008628;28;20064;-71
2022/06/19 06:31:22;;;;;;;4.13;3.05;;;;;;;;;;5007222;28;20029;-70
2022/06/19 06:33:47;;;;;;;4.85;3.17;;;;;;;;;;5012818;28;20341;-68
2022/06/19 06:36:13;;;;;;;3.13;2.83;;;;;;;;;;5015001;28;20490;-69
2022/06/19 06:38:38;;;;;;;3.80;3.50;;;;;;;;;;5015400;28;20037;-73
2022/06/19 06:41:05;;;;;;;5.50;3.20;;;;;;;;;;5009501;28;20801;-71
2022/06/19 06:43:30;;;;;;;3.10;2.90;;;;;;;;;;5014967;28;20104;-70
2022/06/19 06:46:02;;;;;;;3.50;3.20;;;;;;;;;;5010120;28;20721;-74
2022/06/19 06:48:28;;;;;;;3.58;3.28;;;;;;;;;;5011633;28;20037;-68
2022/06/19 06:50:53;;;;;;;3.30;3.05;;;;;;;;;;5016013;28;20487;-68
2022/06/19 06:53:18;;;;;;;5.70;2.90;;;;;;;;;;5011735;28;20444;-72
2022/06/19 06:55:44;;;;;;;4.10;3.60;;;;;;;;;;5007643;28;20403;-68
2022/06/19 06:58:10;;;;;;;4.22;3.17;;;;;;;;;;5009891;28;20417;-74
2022/06/19 07:00:36;;;;;;;3.30;3.00;;;;;;;;;;5013441;28;20490;-73
2022/06/19 07:03:01;;;;;;;3.25;2.95;;;;;;;;;;5005706;28;21444;-71
2022/06/19 07:05:27;;;;;;;3.05;2.85;;;;;;;;;;5008797;28;20120;-69
2022/06/19 07:07:53;;;;;;;3.08;2.88;;;;;;;;;;5007363;28;20029;-73
2022/06/19 07:10:19;;;;;;;2.92;2.63;;;;;;;;;;5010866;28;20348;-69
2022/06/19 07:12:44;;;;;;;3.53;2.97;;;;;;;;;;5010515;28;20118;-70
2022/06/19 07:15:11;;;;;;;3.45;3.25;;;;;;;;;;5009484;28;20859;-70
2022/06/19 07:17:36;;;;;;;3.55;3.20;;;;;;;;;;5011532;28;20030;-70
2022/06/19 07:20:02;;;;;;;3.40;3.10;;;;;;;;;;5009424;28;20036;-69
2022/06/19 07:22:28;;;;;;;4.00;3.60;;;;;;;;;;5013818;28;20051;-70
2022/06/19 07:24:53;;;;;;;4.60;3.75;;;;;;;;;;5012607;28;20021;-69
2022/06/19 07:27:18;;;;;;;4.50;3.15;;;;;;;;;;5010327;28;20083;-72
2022/06/19 07:29:45;;;;;;;3.35;3.15;;;;;;;;;;5004860;28;20083;-70
2022/06/19 07:32:10;;;;;;;3.05;2.80;;;;;;;;;;5006012;28;20033;-69
2022/06/19 07:34:36;;;;;;;3.00;2.80;;;;;;;;;;5005847;28;20415;-68
2022/06/19 07:37:01;;;;;;;3.85;3.55;;;;;;;;;;5007046;28;20112;-68
2022/06/19 07:39:27;;;;;;;3.83;3.47;;;;;;;;;;5006258;28;20053;-71
2022/06/19 07:41:52;;;;;;;2.67;2.47;;;;;;;;;;5005881;28;20017;-70
2022/06/19 07:44:18;;;;;;;3.17;2.97;;;;;;;;;;5007514;28;20041;-69
2022/06/19 07:52:13;;;;;;;2.42;2.22;;;;;;;;;;5006464;28;20576;-71
2022/06/19 07:54:39;;;;;;;4.93;2.28;;;;;;;;;;5008708;28;20021;-70
2022/06/19 07:57:04;;;;;;;2.42;2.22;;;;;;;;;;5005220;28;20448;-69
2022/06/19 07:59:30;;;;;;;2.55;2.35;;;;;;;;;;5004909;28;20029;-73
2022/06/19 08:01:55;;;;;;;3.17;2.10;;;;;;;;;;5005972;28;20105;-70
2022/06/19 08:04:21;;;;;;;2.17;1.98;;;;;;;;;;5007059;28;20093;-71
2022/06/19 08:06:47;;;;;;;2.28;2.08;;;;;;;;;;5009755;28;20060;-70
2022/06/19 08:09:12;;;;;;;2.20;2.10;;;;;;;;;;5009285;28;20457;-70
2022/06/19 08:11:37;;;;;;;2.60;2.17;;;;;;;;;;5004237;28;20156;-71
2022/06/19 08:14:02;;;;;;;3.97;2.20;;;;;;;;;;5008591;28;20033;-73
2022/06/19 08:16:28;;;;;;;2.50;2.22;;;;;;;;;;5008542;28;20036;-71
2022/06/19 08:18:53;;;;;;;3.17;2.25;;;;;;;;;;5002075;28;20029;-71
2022/06/19 08:21:19;;;;;;;2.40;2.20;;;;;;;;;;5005232;28;20025;-71
2022/06/19 08:23:44;;;;;;;2.42;2.22;;;;;;;;;;5007972;28;20124;-70
2022/06/19 08:26:09;;;;;;;2.40;2.20;;;;;;;;;;5011103;28;20030;-71
2022/06/19 08:28:42;;;;;;;4.53;2.53;;;;;;;;;;5012649;28;20026;-71
2022/06/19 08:31:07;;;;;;;1.95;1.80;;;;;;;;;;5011228;28;20356;-72
2022/06/19 08:33:33;;;;;;;2.72;2.35;;;;;;;;;;5012563;28;20117;-71
2022/06/19 08:36:01;;;;;;;3.10;2.80;;;;;;;;;;5013664;28;20421;-71
2022/06/19 08:38:29;;;;;;;3.13;2.90;;;;;;;;;;5013494;28;20033;-70
2022/06/19 08:41:11;;;;;;;3.27;2.10;;;;;;;;;;5013500;28;20131;-71
2022/06/19 08:43:55;;;;;;;2.10;1.90;;;;;;;;;;5013343;28;20251;-70
2022/06/19 08:46:39;;;;;;;1.80;1.70;;;;;;;;;;5012344;28;20026;-71
2022/06/19 08:49:23;;;;;;;2.20;2.00;;;;;;;;;;5013152;28;20018;-71
2022/06/19 08:52:02;;;;;;;2.20;2.10;;;;;;;;;;5013015;28;20030;-69
2022/06/19 08:55:00;;;;;;;3.17;1.80;;;;;;;;;;5012263;28;20033;-73
2022/06/19 08:57:25;;;;;;;1.63;1.53;;;;;;;;;;4961660;28;20115;-72
2022/06/19 09:00:03;;;;;;;2.97;2.67;;;;;;;;;;5004725;28;20048;-70
2022/06/19 09:02:31;;;;;;;1.95;1.85;;;;;;;;;;5008575;28;20044;-71
2022/06/19 09:08:15;;;;;;;1.88;1.77;;;;;;;;;;5003764;28;20048;-70
2022/06/19 09:11:01;;;;;;;2.45;1.67;;;;;;;;;;5003486;28;20057;-74
2022/06/19 09:13:45;;;;;;;1.48;1.38;;;;;;;;;;5003435;28;20099;-73
2022/06/19 09:16:16;;;;;;;1.77;1.67;;;;;;;;;;5007263;28;20030;-70
2022/06/19 09:19:11;;;;;;;1.77;1.58;;;;;;;;;;5007104;28;20337;-71
2022/06/19 09:21:49;;;;;;;1.92;1.70;;;;;;;;;;4999648;28;20057;-72
2022/06/19 09:24:32;;;;;;;1.88;1.48;;;;;;;;;;5016741;28;20059;-72
2022/06/19 09:26:59;;;;;;;1.85;1.40;;;;;;;;;;5017509;28;20040;-71
2022/06/19 09:29:33;;;;;;;2.10;1.25;;;;;;;;;;5041112;28;20061;-69
2022/06/19 09:32:02;;;;;;;1.40;1.30;;;;;;;;;;5017611;28;20112;-69
2022/06/19 09:34:27;;;;;;;1.70;1.60;;;;;;;;;;5010156;28;20029;-73
2022/06/19 09:37:05;;;;;;;2.25;2.05;;;;;;;;;;5011468;28;20095;-70
2022/06/19 09:39:34;;;;;;;5.60;4.50;;;;;;;;;;5009222;28;20132;-73
2022/06/19 09:42:04;;;;;;;2.33;2.13;;;;;;;;;;5011796;28;20040;-69
2022/06/19 09:44:44;;;;;;;4.85;3.03;;;;;;;;;;5014107;28;20127;-70
2022/06/19 09:47:13;;;;;;;2.53;1.70;;;;;;;;;;5018173;28;20326;-69
2022/06/19 09:49:42;;;;;;;1.50;1.40;;;;;;;;;;5015717;28;20033;-68
2022/06/19 09:52:15;;;;;;;5.25;1.92;;;;;;;;;;5018231;28;20104;-69
2022/06/19 09:54:52;;;;;;;1.40;1.30;;;;;;;;;;5017848;28;20068;-69
2022/06/19 09:57:21;;;;;;;1.55;1.45;;;;;;;;;;5015809;28;20033;-69
2022/06/19 09:59:46;;;;;;;;;;;;;;;;;;5015965;28;20033;-73
2022/06/19 10:02:32;;;;;;;3.00;1.67;;;;;;;;;;5014460;28;19913;-70
2022/06/19 10:05:16;;;;;;;1.85;1.73;;;;;;;;;;5007627;28;20025;-72
2022/06/19 10:07:44;;;;;;;2.15;1.48;;;;;;;;;;5013605;28;20021;-69
2022/06/19 10:10:09;;;;;;;2.53;1.80;;;;;;;;;;5014447;28;20055;-69
2022/06/19 10:12:38;;;;;;;2.92;1.60;;;;;;;;;;5016804;28;20460;-70
2022/06/19 10:15:09;;;;;;;1.50;1.40;;;;;;;;;;5015398;28;20037;-74
2022/06/19 10:17:40;;;;;;;1.92;1.40;;;;;;;;;;5016992;28;20021;-71
2022/06/19 10:20:08;;;;;;;1.30;1.20;;;;;;;;;;5011179;28;20029;-71
2022/06/19 10:22:53;;;;;;;2.63;1.15;;;;;;;;;;5007716;28;20026;-72
2022/06/19 10:25:27;;;;;;;1.90;1.38;;;;;;;;;;5022443;28;20444;-76
2022/06/19 10:28:16;;;;;;;3.40;1.35;;;;;;;;;;5017782;28;20029;-71
2022/06/19 10:30:54;;;;;;;3.70;1.67;;;;;;;;;;5008456;28;20080;-69
2022/06/19 10:33:22;;;;;;;1.05;1.02;;;;;;;;;;5016769;28;20025;-71
2022/06/19 10:35:55;;;;;;;2.03;1.48;;;;;;;;;;5013671;28;20121;-74
2022/06/19 10:38:20;;;;;;;1.40;1.30;;;;;;;;;;5008276;28;21096;-72
2022/06/19 10:40:49;;;;;;;2.05;1.85;;;;;;;;;;5018462;28;20064;-73
2022/06/19 10:43:24;;;;;;;1.27;1.17;;;;;;;;;;5019964;28;20029;-74
2022/06/19 10:45:56;;;;;;;1.42;1.33;;;;;;;;;;5010001;28;20026;-72
2022/06/19 10:48:41;;;;;;;1.20;1.05;;;;;;;;;;5019185;28;20052;-71
2022/06/19 10:51:26;;;;;;;2.08;1.88;;;;;;;;;;4992720;28;20045;-75
2022/06/19 10:54:00;;;;;;;2.83;1.50;;;;;;;;;;5009206;28;20049;-73
2022/06/19 10:56:28;;;;;;;4.32;1.65;;;;;;;;;;5008147;28;20029;-73
2022/06/19 10:58:54;;;;;;;1.55;1.45;;;;;;;;;;5011934;28;20091;-70
2022/06/19 11:04:08;;;;;;;;;;;;;;;;;;5019395;28;20617;-70
2022/06/19 11:06:59;;;;;;;2.00;1.30;;;;;;;;;;5010773;28;19908;-71
2022/06/19 11:09:30;;;;;;;1.35;1.27;;;;;;;;;;5004603;28;20144;-72
2022/06/19 11:11:57;;;;;;;1.48;1.13;;;;;;;;;;5008917;28;20079;-70
2022/06/19 11:14:34;;;;;;;1.50;1.40;;;;;;;;;;5008432;28;20025;-73
2022/06/19 11:17:00;;;;;;;1.80;1.70;;;;;;;;;;5008623;28;20025;-74
2022/06/19 11:19:39;;;;;;;1.77;1.67;;;;;;;;;;5008869;28;20246;-73
2022/06/19 11:22:07;;;;;;;1.27;1.25;;;;;;;;;;5007723;28;20041;-71
2022/06/19 11:24:33;;;;;;;1.50;1.40;;;;;;;;;;5007696;28;20075;-74
2022/06/19 11:26:59;;;;;;;1.55;1.45;;;;;;;;;;5006985;28;20014;-71
2022/06/19 11:29:26;;;;;;;1.50;1.40;;;;;;;;;;5006075;28;20048;-70
2022/06/19 11:32:04;;;;;;;1.50;1.40;;;;;;;;;;4991349;28;23258;-73
2022/06/19 11:34:47;;;;;;;1.58;1.48;;;;;;;;;;5009505;28;20029;-74
2022/06/19 11:37:28;;;;;;;2.75;1.30;;;;;;;;;;5014824;28;20026;-73
2022/06/19 11:40:13;;;;;;;1.20;1.20;;;;;;;;;;5005628;28;20041;-72
2022/06/19 11:42:50;;;;;;;1.50;1.40;;;;;;;;;;5004917;28;20061;-74
2022/06/19 11:45:15;;;;;;;1.33;1.20;;;;;;;;;;5008861;28;20321;-70
2022/06/19 11:47:47;;;;;;;1.40;1.30;;;;;;;;;;5008359;28;20045;-70
2022/06/19 11:50:15;;;;;;;2.50;2.30;;;;;;;;;;5014998;28;20509;-73
2022/06/19 11:52:43;;;;;;;1.50;1.40;;;;;;;;;;5010299;28;20017;-70
2022/06/19 11:55:19;;;;;;;1.95;1.70;;;;;;;;;;5004782;28;20025;-70
2022/06/19 11:57:48;;;;;;;1.40;1.30;;;;;;;;;;5004571;28;20411;-69
2022/06/19 12:00:22;;;;;;;1.90;1.08;;;;;;;;;;5007387;28;20037;-69
2022/06/19 12:02:52;;;;;;;0.93;0.93;;;;;;;;;;5012763;28;20124;-72
2022/06/19 12:05:21;;;;;;;1.40;1.20;;;;;;;;;;5006669;28;20029;-71
2022/06/19 12:07:46;;;;;;;1.10;1.00;;;;;;;;;;5003612;28;20391;-71
2022/06/19 12:10:14;;;;;;;2.05;1.30;;;;;;;;;;5004804;28;20059;-74
2022/06/19 12:12:51;;;;;;;1.30;1.20;;;;;;;;;;5002083;28;20029;-69
2022/06/19 12:15:22;;;;;;;1.13;1.02;;;;;;;;;;5004239;28;20025;-73
2022/06/19 12:17:54;;;;;;;1.13;0.90;;;;;;;;;;5006144;28;20033;-72
2022/06/19 12:20:24;;;;;;;1.13;1.10;;;;;;;;;;5006077;28;20039;-70
2022/06/19 12:23:08;;;;;;;1.15;1.15;;;;;;;;;;5008872;28;20075;-70
2022/06/19 12:25:36;;;;;;;2.88;1.20;;;;;;;;;;5014047;28;20026;-70
2022/06/19 12:28:02;;;;;;;1.10;1.10;;;;;;;;;;5011322;28;20035;-71
2022/06/19 12:30:30;;;;;;;1.25;0.85;;;;;;;;;;5016678;28;20132;-71
2022/06/19 12:32:57;;;;;;;0.90;0.90;;;;;;;;;;5008643;28;20067;-71
2022/06/19 12:35:22;;;;;;;1.15;1.05;;;;;;;;;;5011279;28;20449;-74
2022/06/19 12:37:48;;;;;;;1.63;0.90;;;;;;;;;;5013424;28;20083;-72
2022/06/19 12:40:14;;;;;;;1.08;0.98;;;;;;;;;;5015526;28;20072;-71
2022/06/19 12:42:53;;;;;;;1.10;0.88;;;;;;;;;;5013989;28;20029;-74
2022/06/19 12:45:19;;;;;;;;;;;;;;;;;;5005336;28;20407;-71
2022/06/19 12:47:44;;;;;;;0.80;0.80;;;;;;;;;;5006725;28;20000;-70
2022/06/19 12:50:28;;;;;;;0.80;0.80;;;;;;;;;;5006457;28;20084;-72
2022/06/19 12:52:59;;;;;;;2.15;1.10;;;;;;;;;;5015547;28;20643;-70
2022/06/19 12:55:25;;;;;;;1.52;1.00;;;;;;;;;;5018550;28;20038;-76
2022/06/19 12:57:53;;;;;;;1.65;1.15;;;;;;;;;;5016839;28;20054;-72
2022/06/19 13:00:23;;;;;;;0.95;0.95;;;;;;;;;;5025004;28;20120;-76
2022/06/19 13:03:11;;;;;;;1.05;0.90;;;;;;;;;;5009941;28;20029;-72
2022/06/19 13:05:36;;;;;;;1.13;1.13;;;;;;;;;;5007109;28;20059;-72
2022/06/19 13:08:02;;;;;;;1.35;0.90;;;;;;;;;;5014615;28;20018;-72
2022/06/19 13:10:35;;;;;;;1.55;1.00;;;;;;;;;;5017593;28;20029;-74
2022/06/19 13:13:19;;;;;;;1.35;0.80;;;;;;;;;;5016706;28;20484;-75
2022/06/19 13:15:44;;;;;;;0.98;0.88;;;;;;;;;;5011704;28;20059;-73
2022/06/19 13:18:16;;;;;;;0.68;0.68;;;;;;;;;;5017447;28;20723;-73
2022/06/19 13:20:46;;;;;;;0.90;0.90;;;;;;;;;;5008137;28;20078;-72
2022/06/19 13:23:14;;;;;;;1.20;1.13;;;;;;;;;;5008508;28;20363;-73
2022/06/19 13:25:40;;;;;;;1.10;1.00;;;;;;;;;;5009471;28;20425;-76
2022/06/19 13:28:17;;;;;;;1.30;1.10;;;;;;;;;;5007614;28;20065;-77
2022/06/19 13:30:58;;;;;;;0.90;0.90;;;;;;;;;;5009326;28;20033;-75
2022/06/19 13:33:24;;;;;;;1.35;1.25;;;;;;;;;;5008892;28;20032;-76
2022/06/19 13:36:03;;;;;;;1.00;1.00;;;;;;;;;;5007927;28;20018;-73
2022/06/19 13:38:40;;;;;;;0.65;0.65;;;;;;;;;;5009969;28;21034;-75
2022/06/19 13:41:22;;;;;;;0.85;0.85;;;;;;;;;;5007057;28;20049;-73
2022/06/19 13:43:48;;;;;;;0.73;0.73;;;;;;;;;;5008886;28;20505;-75
2022/06/19 13:46:22;;;;;;;0.98;0.98;;;;;;;;;;5009288;28;20037;-73
2022/06/19 13:48:56;;;;;;;0.70;0.70;;;;;;;;;;5008720;28;20022;-72
2022/06/19 13:51:31;;;;;;;0.95;0.95;;;;;;;;;;5006709;28;20082;-74
2022/06/19 13:54:12;;;;;;;2.45;1.10;;;;;;;;;;5008690;28;23055;-75
2022/06/19 13:56:37;;;;;;;1.15;0.93;;;;;;;;;;5006723;28;20139;-72
2022/06/19 13:59:06;;;;;;;1.20;0.90;;;;;;;;;;5009538;28;20396;-76
2022/06/19 14:01:51;;;;;;;1.70;1.10;;;;;;;;;;5006718;28;20444;-72
2022/06/19 14:07:18;;;;;;;1.10;1.02;;;;;;;;;;5008001;28;20032;-73
2022/06/19 14:10:01;;;;;;;0.85;0.85;;;;;;;;;;5005280;28;20033;-76
2022/06/19 14:12:30;;;;;;;2.10;0.90;;;;;;;;;;5008758;28;20144;-72
2022/06/19 14:15:01;;;;;;;0.80;0.80;;;;;;;;;;5011792;28;20025;-72
2022/06/19 14:17:40;;;;;;;0.73;0.73;;;;;;;;;;5008333;28;20033;-75
2022/06/19 14:20:16;;;;;;;1.00;1.00;;;;;;;;;;5007137;28;20038;-77
2022/06/19 14:22:47;;;;;;;0.88;0.80;;;;;;;;;;5010169;28;20100;-76
2022/06/19 14:25:17;;;;;;;0.98;0.90;;;;;;;;;;5008175;28;20060;-76
2022/06/19 14:28:02;;;;;;;0.93;0.90;;;;;;;;;;5007899;28;20039;-77
2022/06/19 14:30:32;;;;;;;0.70;0.70;;;;;;;;;;5006432;28;20127;-75
2022/06/19 14:32:58;;;;;;;0.90;0.90;;;;;;;;;;5008848;28;20100;-76
2022/06/19 14:35:26;;;;;;;1.05;0.95;;;;;;;;;;5009316;28;20720;-71
2022/06/19 14:37:53;;;;;;;1.88;1.17;;;;;;;;;;5006495;28;20025;-72
2022/06/19 14:40:18;;;;;;;1.13;1.02;;;;;;;;;;5007432;28;20053;-72
2022/06/19 14:43:07;;;;;;;0.95;0.95;;;;;;;;;;5008338;28;20030;-72
2022/06/19 14:45:35;;;;;;;1.65;1.10;;;;;;;;;;4992175;28;20712;-75
2022/06/19 14:48:06;;;;;;;0.82;0.82;;;;;;;;;;5006252;28;20224;-71
2022/06/19 14:50:44;;;;;;;1.25;0.90;;;;;;;;;;5007394;28;20380;-71
2022/06/19 14:53:24;;;;;;;0.93;0.70;;;;;;;;;;5007687;28;20360;-75
2022/06/19 14:56:06;;;;;;;0.73;0.73;;;;;;;;;;5007544;28;20084;-71
2022/06/19 14:58:43;;;;;;;0.88;0.82;;;;;;;;;;5005275;28;20048;-74
2022/06/19 15:01:18;;;;;;;0.77;0.75;;;;;;;;;;5006897;28;20437;-72
2022/06/19 15:03:56;;;;;;;1.75;1.08;;;;;;;;;;5003762;28;20104;-75
2022/06/19 15:06:24;;;;;;;1.00;0.90;;;;;;;;;;5006464;28;20025;-74
2022/06/19 15:09:04;;;;;;;1.67;0.80;;;;;;;;;;5009421;28;20427;-73
2022/06/19 15:11:34;;;;;;;1.17;0.98;;;;;;;;;;5006420;28;20096;-73